Terminal Aerodrome Forecast
Issued by NWS Mt. Holly, NJ

Home | Current Version | Previous Version | Text Only | Print | Product List | Glossary On
Versions: 1 2 3 4 5 6 7 8 9 10 11 12 13 14 15 16 17 18 19 20
000
FTUS41 KPHI 200500
TAFTTN
TAF
KTTN 200533Z 2006/2106 33005KT P6SM OVC028
     FM201600 03004KT P6SM SCT030 BKN200
     FM210200 00000KT P6SM SCT025 BKN100=

USA.gov is the U.S. government's official web portal to all federal, state and local government web resources and services.